CheckWX is a tool to help pilots better visualize weather data.  It is not intended as a substitute for an official pre-flight weather briefing.

14:55:15 UTC

KOMA TAF
Eppley Airfield Airport
Omaha, Nebraska, USA
KOMA 291120Z 2912/3012 30015G25KT P6SM SKC FM292200 33006KT P6SM SKC

Mar-29@
12:00 UTC

Mar-29 @ 12:00 UTC

Mar-29@
22:00 UTC

Mar-29 @ 22:00 UTC

TAF KOMA 291120Z 2912/3012 30015G25KT P6SM SKC
Wind
  • 300° at 15 KTS
  • {Gusting to 25 KTS
Cloud Levels
  • Clear skies

Mar-29@
22:00 UTC

Mar-29 @ 22:00 UTC

Mar-30@
12:00 UTC

Mar-30 @ 12:00 UTC

FM292200 33006KT P6SM SKC

From

From Standard forecast or significant change

Wind
  • 330° at 6 KTS
Cloud Levels
  • Clear skies